createdAt,value
2022-12-11T00:00:24.451Z,44.30
2022-12-11T02:14:30.920Z,80.43
2022-12-11T02:16:59.954Z,58.25
2022-12-11T02:19:39.220Z,81.43
2022-12-11T02:21:47.764Z,76.50
2022-12-11T02:24:04.763Z,99.07
2022-12-11T02:26:23.865Z,76.18
2022-12-11T02:28:32.321Z,84.20
2022-12-11T02:30:37.169Z,80.35
2022-12-11T02:32:55.483Z,82.65
2022-12-11T02:35:35.728Z,98.80
2022-12-11T02:37:41.754Z,62.15
2022-12-11T02:39:45.582Z,83.03
2022-12-11T02:41:50.843Z,60.17
2022-12-11T02:43:55.329Z,103.70
2022-12-11T02:45:59.222Z,124.32
2022-12-11T02:48:03.979Z,134.00
2022-12-11T02:50:11.731Z,110.25
2022-12-11T02:52:16.227Z,55.75
2022-12-11T02:54:28.549Z,44.08
2022-12-11T02:58:47.214Z,49.40
2022-12-11T03:00:49.313Z,71.65
2022-12-11T03:04:53.300Z,86.00
2022-12-11T03:09:02.400Z,39.60
2022-12-11T03:11:04.365Z,45.67
2022-12-11T03:13:06.302Z,64.32
2022-12-11T03:15:13.915Z,74.32
2022-12-11T03:17:20.049Z,44.90
2022-12-11T03:19:37.174Z,48.60
2022-12-11T03:21:38.958Z,69.45
2022-12-11T03:23:45.179Z,48.40
2022-12-11T03:25:56.211Z,78.55
2022-12-11T03:28:02.489Z,54.60
2022-12-11T03:30:10.519Z,57.20
2022-12-11T03:32:23.077Z,79.13
2022-12-11T03:34:32.477Z,66.43
2022-12-11T03:36:37.565Z,50.47
2022-12-11T03:38:49.339Z,79.63
2022-12-11T03:40:55.850Z,49.40
2022-12-11T03:42:58.639Z,53.35
2022-12-11T03:45:02.537Z,42.38
2022-12-11T03:47:07.465Z,41.15
2022-12-11T03:49:22.192Z,69.47
2022-12-11T03:51:24.882Z,44.83
2022-12-11T03:53:27.942Z,45.53
2022-12-11T03:55:31.045Z,43.80
2022-12-11T03:57:37.531Z,41.55
2022-12-11T03:59:39.591Z,44.75
2022-12-11T04:01:41.531Z,45.97
2022-12-11T04:03:43.438Z,46.08
2022-12-11T04:05:50.555Z,57.88
2022-12-11T04:07:52.470Z,51.00
2022-12-11T04:09:54.954Z,60.97
2022-12-11T04:11:56.843Z,60.47
2022-12-11T04:14:17.298Z,49.60
2022-12-11T04:16:19.154Z,60.47
2022-12-11T04:18:39.858Z,52.35
2022-12-11T04:21:00.206Z,75.07
2022-12-11T04:23:23.221Z,65.90
2022-12-11T04:25:25.097Z,60.85
2022-12-11T04:27:45.948Z,51.35
2022-12-11T04:29:47.848Z,45.65
2022-12-11T04:31:50.812Z,49.38
2022-12-11T04:33:53.321Z,67.90
2022-12-11T04:35:57.886Z,41.28
2022-12-11T04:37:59.874Z,48.22
2022-12-11T04:40:02.792Z,42.90
2022-12-11T04:42:04.721Z,66.78
2022-12-11T04:44:06.575Z,63.35
2022-12-11T04:46:11.874Z,63.42
2022-12-11T04:48:13.808Z,70.22
2022-12-11T04:50:16.136Z,56.60
2022-12-11T04:52:18.828Z,47.75
2022-12-11T04:54:20.766Z,55.88
2022-12-11T04:56:22.733Z,57.15
2022-12-11T04:58:26.144Z,54.40
2022-12-11T05:00:27.997Z,45.95
2022-12-11T05:02:29.863Z,43.50
2022-12-11T05:04:33.261Z,46.83
2022-12-11T05:06:35.106Z,65.57
2022-12-11T05:08:40.237Z,50.30
2022-12-11T05:10:47.135Z,53.55
2022-12-11T05:12:51.788Z,44.50
2022-12-11T05:14:54.770Z,44.72
2022-12-11T05:16:56.654Z,49.63
2022-12-11T05:18:58.548Z,46.33
2022-12-11T05:21:06.831Z,43.25
2022-12-11T05:23:08.823Z,45.00
2022-12-11T05:25:11.291Z,46.08
2022-12-11T05:27:13.425Z,45.42
2022-12-11T05:29:15.322Z,48.47
2022-12-11T05:31:20.704Z,47.75
2022-12-11T05:33:22.718Z,42.00
2022-12-11T05:35:24.619Z,41.97
2022-12-11T05:37:26.487Z,44.53
2022-12-11T05:39:28.391Z,43.33
2022-12-11T05:41:32.636Z,43.67
2022-12-11T05:43:36.490Z,43.22
2022-12-11T05:45:38.456Z,41.83
2022-12-11T05:47:40.481Z,43.03
2022-12-11T05:51:44.229Z,38.83
2022-12-11T05:53:47.584Z,40.85
2022-12-11T05:55:49.442Z,39.75
2022-12-11T05:57:51.443Z,39.25
2022-12-11T08:13:33.576Z,23.30
2022-12-11T08:15:35.910Z,22.33
2022-12-11T08:17:41.702Z,18.67
2022-12-11T08:19:43.637Z,21.05
2022-12-11T08:21:45.571Z,19.23
2022-12-11T08:23:47.875Z,19.75
2022-12-11T08:25:49.756Z,19.98
2022-12-11T08:27:51.641Z,19.38
2022-12-11T08:29:53.625Z,19.55
2022-12-11T08:31:55.701Z,20.92
2022-12-11T08:36:03.913Z,19.05
2022-12-11T08:38:06.106Z,18.77
2022-12-11T08:40:08.872Z,21.08
2022-12-11T08:42:10.831Z,19.63
2022-12-11T08:44:16.554Z,20.02
2022-12-11T08:46:18.817Z,20.23
2022-12-11T08:48:20.719Z,20.88
2022-12-11T08:50:22.753Z,20.98
2022-12-11T08:54:26.620Z,18.40
2022-12-11T08:56:29.645Z,18.48
2022-12-11T08:58:31.542Z,18.30
2022-12-11T09:00:33.452Z,17.52
2022-12-11T09:02:35.761Z,18.20
2022-12-11T09:04:37.723Z,16.63
2022-12-11T09:06:39.819Z,17.23
2022-12-11T09:08:47.274Z,15.57
2022-12-11T09:11:03.607Z,17.42
2022-12-11T09:13:05.686Z,17.55
2022-12-11T09:15:08.693Z,16.52
2022-12-11T09:17:12.431Z,18.20
2022-12-11T09:19:21.757Z,17.58
2022-12-11T09:21:27.806Z,16.88
2022-12-11T09:23:29.899Z,17.60
2022-12-11T09:25:31.801Z,17.35
2022-12-11T09:29:36.233Z,16.50
2022-12-11T09:31:38.241Z,16.05
2022-12-11T09:35:45.542Z,15.68
2022-12-11T09:37:47.570Z,17.38
2022-12-11T09:39:54.694Z,15.90
2022-12-11T09:42:33.923Z,16.45
2022-12-11T09:45:02.652Z,16.65
2022-12-11T09:47:32.020Z,16.48
2022-12-11T09:49:42.667Z,16.70
2022-12-11T09:51:50.179Z,17.63
2022-12-11T09:53:54.470Z,17.00
2022-12-11T09:56:34.170Z,16.95
2022-12-11T09:58:44.549Z,15.70
2022-12-11T10:00:51.663Z,15.25
2022-12-11T10:03:02.713Z,15.32
2022-12-11T10:05:48.242Z,16.27
2022-12-11T10:08:20.923Z,15.32
2022-12-11T10:10:43.148Z,16.98
2022-12-11T10:12:53.668Z,16.33
2022-12-11T10:15:23.752Z,17.25
2022-12-11T10:17:28.541Z,19.02
2022-12-11T10:19:32.476Z,17.10
2022-12-11T10:21:42.011Z,17.83
2022-12-11T10:23:51.132Z,20.00
2022-12-11T10:26:04.439Z,19.52
2022-12-11T10:28:23.963Z,20.10
2022-12-11T10:30:34.309Z,18.23
2022-12-11T10:32:45.958Z,19.13
2022-12-11T10:34:51.292Z,19.60
2022-12-11T10:37:00.151Z,19.20
2022-12-11T10:39:03.901Z,15.20
2022-12-11T10:41:15.172Z,16.95
2022-12-11T10:43:17.563Z,15.80
2022-12-11T10:45:20.303Z,16.83
2022-12-11T10:47:22.739Z,18.25
2022-12-11T10:49:28.187Z,16.60
2022-12-11T10:51:32.932Z,16.88
2022-12-11T10:53:36.110Z,15.80
2022-12-11T10:55:45.819Z,16.83
2022-12-11T10:57:57.839Z,14.40
2022-12-11T11:00:00.752Z,15.40
2022-12-11T11:02:08.416Z,14.75
2022-12-11T11:04:27.190Z,15.18
2022-12-11T11:06:30.506Z,14.00
2022-12-11T11:08:50.042Z,15.10
2022-12-11T11:10:58.924Z,13.57
2022-12-11T11:13:02.076Z,13.35
2022-12-11T11:15:29.503Z,13.77
2022-12-11T11:17:35.755Z,14.38
2022-12-11T11:19:39.130Z,12.48
2022-12-11T11:22:02.553Z,13.80
2022-12-11T11:24:05.030Z,13.65
2022-12-11T11:26:14.244Z,14.02
2022-12-11T11:28:48.185Z,13.77
2022-12-11T11:33:59.407Z,13.43
2022-12-11T11:36:21.360Z,14.95
2022-12-11T11:38:28.153Z,14.82
2022-12-11T11:40:36.894Z,13.60
2022-12-11T11:43:06.201Z,14.27
2022-12-11T11:45:23.166Z,13.10
2022-12-11T11:47:31.673Z,12.82
2022-12-11T11:49:39.823Z,13.55
2022-12-11T11:52:06.283Z,14.45
2022-12-11T11:54:28.668Z,14.10
2022-12-11T11:56:37.775Z,13.00
2022-12-11T11:58:46.179Z,12.55
2022-12-11T12:00:48.147Z,12.93
2022-12-11T14:18:36.892Z,17.77
2022-12-11T14:20:39.600Z,18.17
2022-12-11T14:22:41.485Z,15.93
2022-12-11T14:24:53.950Z,16.13
2022-12-11T14:26:56.304Z,16.25
2022-12-11T14:28:58.278Z,14.27
2022-12-11T14:31:01.989Z,15.27
2022-12-11T14:33:05.583Z,16.20
2022-12-11T14:35:18.806Z,17.67
2022-12-11T14:37:23.758Z,15.30
2022-12-11T14:39:50.281Z,15.70
2022-12-11T14:42:03.644Z,14.95
2022-12-11T14:44:12.477Z,16.30
2022-12-11T14:46:21.998Z,15.10
2022-12-11T14:48:30.076Z,15.95
2022-12-11T14:50:50.183Z,14.60
2022-12-11T14:53:02.250Z,14.82
2022-12-11T14:55:28.392Z,16.20
2022-12-11T14:57:33.212Z,16.55
2022-12-11T14:59:43.921Z,19.13
2022-12-11T15:01:45.944Z,16.95
2022-12-11T15:05:55.466Z,19.50
2022-12-11T15:08:13.004Z,18.67
2022-12-11T15:10:31.410Z,19.27
2022-12-11T15:12:33.562Z,17.00
2022-12-11T15:16:39.935Z,17.35
2022-12-11T15:18:43.089Z,18.23
2022-12-11T15:20:49.827Z,15.10
2022-12-11T15:22:52.369Z,16.02
2022-12-11T15:24:55.108Z,18.13
2022-12-11T15:26:59.450Z,16.95
2022-12-11T15:29:22.670Z,17.70
2022-12-11T15:31:30.704Z,18.50
2022-12-11T15:33:34.732Z,25.70
2022-12-11T15:35:38.369Z,19.30
2022-12-11T15:37:40.229Z,22.70
2022-12-11T15:39:42.071Z,16.70
2022-12-11T15:41:44.224Z,14.60
2022-12-11T15:45:47.961Z,14.95
2022-12-11T15:47:50.766Z,15.63
2022-12-11T15:50:02.216Z,16.85
2022-12-11T15:52:04.384Z,15.77
2022-12-11T15:56:15.023Z,16.70
2022-12-11T15:58:23.255Z,13.93
2022-12-11T16:00:27.058Z,15.65
2022-12-11T16:02:29.018Z,15.80
2022-12-11T16:04:30.889Z,18.98
2022-12-11T16:06:33.411Z,17.27
2022-12-11T16:08:35.256Z,15.90
2022-12-11T16:10:37.664Z,17.25
2022-12-11T16:12:39.816Z,18.35
2022-12-11T16:16:43.799Z,17.35
2022-12-11T16:18:45.669Z,17.88
2022-12-11T16:20:47.948Z,18.33
2022-12-11T16:22:49.806Z,18.70
2022-12-11T16:24:55.346Z,16.15
2022-12-11T16:26:57.226Z,18.52
2022-12-11T16:28:59.076Z,20.60
2022-12-11T16:31:01.922Z,18.58
2022-12-11T16:33:12.151Z,19.92
2022-12-11T16:35:14.726Z,19.25
2022-12-11T16:39:18.455Z,16.57
2022-12-11T16:41:20.407Z,18.15
2022-12-11T16:43:22.298Z,19.73
2022-12-11T16:45:25.818Z,19.25
2022-12-11T16:47:30.332Z,19.40
2022-12-11T16:49:32.348Z,19.92
2022-12-11T16:51:34.281Z,17.30
2022-12-11T16:53:36.632Z,19.05
2022-12-11T16:55:40.158Z,19.73
2022-12-11T16:57:42.573Z,18.98
2022-12-11T16:59:44.495Z,19.40
2022-12-11T17:01:46.396Z,19.63
2022-12-11T17:03:48.617Z,20.40
2022-12-11T17:07:52.471Z,17.55
2022-12-11T17:11:56.817Z,19.98
2022-12-11T17:14:00.166Z,19.65
2022-12-11T17:16:09.922Z,21.98
2022-12-11T17:18:12.484Z,21.65
2022-12-11T17:20:14.437Z,23.13
2022-12-11T17:22:16.443Z,22.35
2022-12-11T17:26:20.453Z,18.23
2022-12-11T17:28:22.576Z,22.25
2022-12-11T17:32:26.456Z,20.08
2022-12-11T17:36:36.612Z,20.20
2022-12-11T17:38:38.483Z,28.05
2022-12-11T17:40:42.672Z,25.13
2022-12-11T17:42:44.971Z,23.38
2022-12-11T17:44:46.940Z,21.23
2022-12-11T17:46:48.968Z,25.17
2022-12-11T17:48:51.037Z,21.73
2022-12-11T17:52:57.692Z,18.15
2022-12-11T17:54:59.712Z,21.25
2022-12-11T17:57:02.390Z,20.60
2022-12-11T17:59:04.668Z,18.35
2022-12-11T20:14:23.907Z,8.25
2022-12-11T20:16:53.430Z,8.32
2022-12-11T20:18:48.882Z,7.72
2022-12-11T20:21:00.709Z,8.52
2022-12-11T20:23:02.668Z,6.97
2022-12-11T20:25:04.864Z,6.25
2022-12-11T20:29:08.855Z,6.32
2022-12-11T20:33:22.498Z,6.55
2022-12-11T20:35:26.427Z,6.57
2022-12-11T20:37:29.152Z,6.38
2022-12-11T20:39:32.151Z,6.35
2022-12-11T20:41:34.176Z,7.05
2022-12-11T20:43:42.811Z,7.30
2022-12-11T20:45:48.959Z,7.18
2022-12-11T20:47:50.975Z,6.70
2022-12-11T20:49:52.808Z,6.28
2022-12-11T20:51:54.880Z,8.30
2022-12-11T20:56:02.080Z,9.57
2022-12-11T20:58:04.007Z,8.63
2022-12-11T21:00:07.121Z,8.60
2022-12-11T21:02:11.047Z,9.30
2022-12-11T21:04:12.937Z,10.65
2022-12-11T21:06:31.050Z,9.65
2022-12-11T21:08:33.287Z,12.63
2022-12-11T21:10:35.186Z,12.45
2022-12-11T21:12:38.239Z,11.68
2022-12-11T21:14:40.138Z,12.85
2022-12-11T21:16:42.355Z,16.13
2022-12-11T21:18:46.416Z,14.48
2022-12-11T21:20:48.256Z,14.15
2022-12-11T21:22:50.139Z,14.30
2022-12-11T21:24:52.236Z,14.02
2022-12-11T21:28:57.648Z,15.45
2022-12-11T21:31:02.188Z,15.32
2022-12-11T21:33:04.089Z,15.55
2022-12-11T21:35:06.462Z,15.77
2022-12-11T21:37:13.131Z,17.20
2022-12-11T21:39:15.586Z,14.15
2022-12-11T21:41:20.979Z,14.13
2022-12-11T21:43:23.920Z,11.35
2022-12-11T21:47:47.749Z,12.25
2022-12-11T21:49:49.678Z,11.75
2022-12-11T21:51:51.528Z,10.10
2022-12-11T21:53:54.879Z,9.63
2022-12-11T21:55:56.705Z,10.10
2022-12-11T21:57:58.670Z,9.90
2022-12-11T22:00:00.642Z,9.73
2022-12-11T22:02:03.195Z,8.95
2022-12-11T22:04:05.725Z,10.70
2022-12-11T22:06:07.860Z,10.82
2022-12-11T22:10:11.967Z,10.27
2022-12-11T22:12:26.898Z,11.35
2022-12-11T22:14:31.309Z,11.30
2022-12-11T22:16:35.099Z,11.73
2022-12-11T22:18:37.158Z,13.57
2022-12-11T22:20:39.177Z,11.82
2022-12-11T22:22:43.636Z,13.48
2022-12-11T22:24:45.771Z,13.57
2022-12-11T22:28:50.657Z,12.13
2022-12-11T22:30:52.644Z,13.15
2022-12-11T22:32:54.708Z,12.00
2022-12-11T22:34:57.845Z,11.88
2022-12-11T22:36:59.832Z,11.32
2022-12-11T22:39:02.709Z,12.73
2022-12-11T22:41:31.685Z,12.73
2022-12-11T22:43:39.511Z,13.32
2022-12-11T22:45:58.675Z,12.90
2022-12-11T22:48:28.591Z,14.52
2022-12-11T22:50:32.527Z,15.32
2022-12-11T22:52:35.680Z,16.85
2022-12-11T22:54:42.272Z,19.67
2022-12-11T22:56:47.217Z,16.80
2022-12-11T22:58:57.529Z,18.00
2022-12-11T23:01:00.124Z,17.77
2022-12-11T23:03:02.884Z,18.48
2022-12-11T23:05:06.628Z,16.15
2022-12-11T23:07:08.882Z,17.30
2022-12-11T23:09:12.113Z,17.02
2022-12-11T23:11:21.262Z,15.70
2022-12-11T23:13:23.084Z,16.42
2022-12-11T23:15:25.060Z,17.08
2022-12-11T23:17:30.575Z,14.85
2022-12-11T23:19:32.513Z,15.73
2022-12-11T23:21:34.825Z,14.40
2022-12-11T23:23:37.350Z,16.85
2022-12-11T23:25:39.270Z,14.13
2022-12-11T23:27:41.552Z,17.40
2022-12-11T23:29:43.559Z,15.18
2022-12-11T23:31:45.392Z,13.85
2022-12-11T23:33:47.264Z,14.80
2022-12-11T23:35:49.231Z,14.27
2022-12-11T23:37:51.194Z,15.25
2022-12-11T23:39:53.137Z,14.95
2022-12-11T23:41:58.082Z,15.88
2022-12-11T23:44:00.002Z,14.57
2022-12-11T23:46:03.189Z,14.52
2022-12-11T23:48:05.166Z,15.48
2022-12-11T23:50:07.386Z,15.43
2022-12-11T23:52:12.131Z,14.82
2022-12-11T23:54:14.351Z,13.77
2022-12-11T23:56:26.766Z,12.80
